Time;durP1;ratioP1;P1;durP2;ratioP2;P2;SDS_P1;SDS_P2;PMS_P1;PMS_P2;Temp;Humidity;BMP_temperature;BMP_pressure;BME280_temperature;BME280_humidity;BME280_pressure;Samples;Min_cycle;Max_cycle;Signal;HPM_P1;HPM_P2
2023/06/26 00:02:09;;;;;;;9.15;7.78;;;;;;;25.64;48.65;101125.91;5083518;28;20479;-76
2023/06/26 00:04:35;;;;;;;8.43;7.55;;;;;;;25.62;48.64;101136.78;5084611;28;20027;-76
2023/06/26 00:07:01;;;;;;;10.40;7.00;;;;;;;25.65;48.76;101134.09;5069027;28;20040;-76
2023/06/26 00:09:26;;;;;;;8.38;7.57;;;;;;;25.60;48.51;101131.47;5071333;28;20028;-76
2023/06/26 00:11:52;;;;;;;10.02;7.95;;;;;;;25.64;48.58;101125.91;5068100;28;20025;-76
2023/06/26 00:14:20;;;;;;;13.23;7.50;;;;;;;25.61;48.69;101121.75;5066042;28;20037;-76
2023/06/26 00:16:46;;;;;;;8.20;7.40;;;;;;;25.62;48.69;101125.41;5073053;28;20044;-76
2023/06/26 00:19:13;;;;;;;8.60;7.90;;;;;;;25.57;48.67;101126.47;5072451;28;20064;-76
2023/06/26 00:21:38;;;;;;;8.95;7.60;;;;;;;25.56;48.30;101118.31;5072489;28;20028;-76
2023/06/26 00:24:04;;;;;;;9.45;7.47;;;;;;;25.50;48.42;101114.00;5050583;28;20037;-76
2023/06/26 00:26:29;;;;;;;8.27;7.47;;;;;;;25.49;48.85;101118.84;5057727;28;20055;-76
2023/06/26 00:28:54;;;;;;;8.15;7.35;;;;;;;25.45;48.80;101115.06;5070772;28;20039;-77
2023/06/26 00:31:20;;;;;;;10.07;8.13;;;;;;;25.44;48.84;101121.91;5077696;28;20035;-76
2023/06/26 00:33:45;;;;;;;8.80;8.00;;;;;;;25.44;48.95;101117.06;5062287;28;20060;-77
2023/06/26 00:36:10;;;;;;;9.75;8.38;;;;;;;25.44;49.19;101121.91;5050221;28;20495;-77
2023/06/26 00:38:35;;;;;;;9.00;8.20;;;;;;;25.45;49.11;101117.91;5056308;28;20408;-77
2023/06/26 00:41:01;;;;;;;9.55;8.55;;;;;;;25.38;49.40;101118.44;5069002;28;20028;-77
2023/06/26 00:43:26;;;;;;;9.02;7.72;;;;;;;25.37;49.56;101115.97;5071901;28;20029;-76
2023/06/26 00:45:51;;;;;;;10.40;7.97;;;;;;;25.38;49.33;101121.28;5070053;28;20057;-77
2023/06/26 00:48:18;;;;;;;8.98;8.10;;;;;;;25.30;49.46;101122.19;5083754;28;20464;-76
2023/06/26 00:50:43;;;;;;;9.30;8.40;;;;;;;25.20;49.96;101122.63;5069962;28;20526;-77
2023/06/26 00:53:11;;;;;;;9.55;8.10;;;;;;;25.18;49.85;101124.97;5087996;28;20024;-77
2023/06/26 00:55:37;;;;;;;11.45;8.40;;;;;;;25.10;49.69;101129.53;5083061;28;20028;-76
2023/06/26 00:58:02;;;;;;;11.15;8.32;;;;;;;25.09;50.04;101127.88;5069734;28;20036;-77
2023/06/26 01:00:28;;;;;;;12.35;8.73;;;;;;;25.06;49.80;101133.38;5069361;28;20033;-76
2023/06/26 01:02:55;;;;;;;11.23;8.77;;;;;;;25.05;50.22;101131.72;5069506;28;20043;-76
2023/06/26 01:05:21;;;;;;;10.30;8.93;;;;;;;25.07;49.72;101135.84;5070173;28;20081;-76
2023/06/26 01:07:48;;;;;;;11.57;8.23;;;;;;;25.09;49.80;101136.38;5054294;28;20397;-75
2023/06/26 01:10:14;;;;;;;9.73;8.77;;;;;;;25.06;49.97;101144.75;5082880;28;20141;-76
2023/06/26 01:12:39;;;;;;;9.60;8.63;;;;;;;25.02;49.61;101147.44;5082754;28;20120;-76
2023/06/26 01:15:05;;;;;;;9.57;8.60;;;;;;;25.00;49.60;101141.28;5069496;28;20179;-76
2023/06/26 01:17:31;;;;;;;11.32;8.02;;;;;;;25.00;49.26;101143.28;5069688;28;20115;-76
2023/06/26 01:20:01;;;;;;;8.50;7.60;;;;;;;25.03;49.30;101145.41;5069628;28;20048;-77
2023/06/26 01:22:56;;;;;;;11.88;7.53;;;;;;;25.00;49.30;101146.13;5068103;28;20414;-76
2023/06/26 01:25:26;;;;;;;8.90;7.95;;;;;;;24.89;49.31;101142.84;5077311;28;20047;-76
2023/06/26 01:27:54;;;;;;;11.13;7.90;;;;;;;24.91;49.47;101151.84;5068419;28;20040;-76
2023/06/26 01:30:21;;;;;;;8.43;7.63;;;;;;;24.87;49.21;101150.88;5078535;28;20467;-76
2023/06/26 01:32:47;;;;;;;8.77;7.63;;;;;;;24.85;49.19;101150.38;5072884;28;20035;-76
2023/06/26 01:35:14;;;;;;;8.57;7.68;;;;;;;24.80;49.49;101153.41;5073634;28;20041;-76
2023/06/26 01:37:39;;;;;;;9.63;7.28;;;;;;;24.81;49.35;101155.91;5090286;28;20486;-76
2023/06/26 01:40:05;;;;;;;8.57;6.78;;;;;;;24.82;49.66;101148.22;5071866;28;20093;-76
2023/06/26 01:42:34;;;;;;;10.43;7.50;;;;;;;24.75;49.38;101157.28;5073580;28;20027;-76
2023/06/26 01:45:20;;;;;;;8.40;6.85;;;;;;;24.73;49.61;101160.47;5075282;28;20118;-76
2023/06/26 01:47:50;;;;;;;7.57;6.82;;;;;;;24.69;49.68;101164.34;5083949;28;20032;-76
2023/06/26 01:50:24;;;;;;;7.60;6.85;;;;;;;24.72;49.42;101175.00;5073082;28;20035;-77
2023/06/26 01:53:04;;;;;;;9.65;6.30;;;;;;;24.70;49.31;101175.34;5089850;28;20379;-76
2023/06/26 01:55:48;;;;;;;8.02;6.60;;;;;;;24.56;49.29;101171.06;5057714;28;20067;-76
2023/06/26 01:58:14;;;;;;;7.07;6.35;;;;;;;24.61;49.25;101185.06;5073797;28;20028;-76
2023/06/26 02:00:40;;;;;;;9.80;6.63;;;;;;;24.54;49.50;101174.25;5072111;28;20384;-76
2023/06/26 02:03:06;;;;;;;6.78;5.90;;;;;;;24.49;49.15;101186.63;5071043;28;20107;-76
2023/06/26 02:05:32;;;;;;;10.20;6.22;;;;;;;24.47;49.22;101186.09;5073620;28;20132;-76
2023/06/26 02:07:58;;;;;;;10.38;6.13;;;;;;;24.46;49.31;101189.28;5091461;28;20031;-76
2023/06/26 02:10:23;;;;;;;8.93;5.53;;;;;;;24.43;49.64;101189.97;5065988;28;20032;-77
2023/06/26 02:12:48;;;;;;;8.18;5.97;;;;;;;24.33;49.64;101173.31;5064273;28;20081;-76
2023/06/26 02:15:13;;;;;;;9.43;5.57;;;;;;;24.37;49.23;101177.13;5071626;28;20045;-77
2023/06/26 02:17:39;;;;;;;7.00;5.60;;;;;;;24.32;49.24;101177.28;5071671;28;20082;-77
2023/06/26 02:20:05;;;;;;;6.90;5.50;;;;;;;24.23;49.52;101180.97;5072632;28;20044;-77
2023/06/26 02:22:31;;;;;;;6.97;5.47;;;;;;;24.24;49.62;101178.97;5073165;28;20063;-76
2023/06/26 02:24:56;;;;;;;6.15;5.43;;;;;;;24.19;49.16;101176.31;5070677;28;20143;-77
2023/06/26 02:27:21;;;;;;;8.13;5.75;;;;;;;24.19;49.38;101177.16;5070353;28;20073;-77
2023/06/26 02:29:47;;;;;;;8.40;5.57;;;;;;;24.16;49.17;101180.66;5084093;28;20032;-76
2023/06/26 02:32:12;;;;;;;9.20;5.53;;;;;;;24.18;49.45;101191.69;5092565;28;20051;-77
2023/06/26 02:34:37;;;;;;;7.25;5.28;;;;;;;24.21;49.42;101189.00;5092868;28;20067;-77
2023/06/26 02:37:03;;;;;;;7.50;4.88;;;;;;;24.17;48.92;101188.03;5080145;28;20032;-77
2023/06/26 02:39:28;;;;;;;10.38;5.15;;;;;;;24.02;49.36;101185.72;5070773;28;20111;-76
2023/06/26 02:41:53;;;;;;;6.95;4.80;;;;;;;23.98;48.75;101191.22;5074973;28;20482;-76
2023/06/26 02:44:19;;;;;;;7.82;5.10;;;;;;;24.01;49.19;101192.53;5078731;28;20152;-76
2023/06/26 02:46:44;;;;;;;7.72;4.60;;;;;;;24.02;48.76;101196.22;5083612;28;20036;-77
2023/06/26 02:49:10;;;;;;;7.57;4.75;;;;;;;23.94;49.08;101198.72;5092333;28;20502;-77
2023/06/26 02:51:35;;;;;;;8.30;5.25;;;;;;;23.90;49.43;101199.75;5088499;28;20024;-77
2023/06/26 02:54:01;;;;;;;8.63;4.72;;;;;;;23.89;49.07;101210.22;5090692;28;20027;-76
2023/06/26 02:56:29;;;;;;;7.05;4.70;;;;;;;23.92;48.83;101220.06;5072380;28;20035;-78
2023/06/26 02:58:55;;;;;;;9.63;4.97;;;;;;;23.93;48.78;101221.72;5070533;28;20089;-78
2023/06/26 03:01:21;;;;;;;7.55;5.00;;;;;;;23.81;49.30;101219.56;5070196;28;20035;-77
2023/06/26 03:03:46;;;;;;;10.45;4.90;;;;;;;23.75;49.13;101218.91;5060313;28;20033;-77
2023/06/26 03:06:12;;;;;;;7.47;4.90;;;;;;;23.74;49.21;101219.25;5054752;28;20024;-77
2023/06/26 03:08:41;;;;;;;8.70;4.90;;;;;;;23.63;49.62;101230.06;5059414;28;20102;-77
2023/06/26 03:11:07;;;;;;;9.57;5.07;;;;;;;23.70;49.93;101221.94;5066132;28;20032;-77
2023/06/26 03:13:35;;;;;;;10.25;5.00;;;;;;;23.64;50.23;101234.53;5064273;28;20096;-77
2023/06/26 03:16:00;;;;;;;10.27;5.00;;;;;;;23.72;50.57;101228.06;5060641;28;20048;-77
2023/06/26 03:18:26;;;;;;;10.30;5.10;;;;;;;23.66;50.62;101235.09;5064456;28;20037;-78
2023/06/26 03:20:54;;;;;;;10.80;4.72;;;;;;;23.56;50.87;101229.72;5060735;28;20031;-77
2023/06/26 03:23:20;;;;;;;8.65;5.18;;;;;;;23.53;51.06;101236.88;5077161;28;20444;-77
2023/06/26 03:25:45;;;;;;;9.38;5.07;;;;;;;23.60;51.16;101238.38;5070059;28;20048;-77
2023/06/26 03:28:11;;;;;;;12.88;4.70;;;;;;;23.59;51.30;101229.06;5069985;28;20029;-77
2023/06/26 03:30:36;;;;;;;10.48;5.47;;;;;;;23.55;51.49;101232.88;5068457;28;20746;-77
2023/06/26 03:33:01;;;;;;;10.98;5.15;;;;;;;23.46;52.04;101230.03;5064317;28;20082;-77
2023/06/26 03:35:27;;;;;;;12.02;4.65;;;;;;;23.45;52.12;101232.03;5067581;28;20029;-76
2023/06/26 03:37:52;;;;;;;8.75;4.53;;;;;;;23.50;52.16;101231.03;5052023;28;20488;-76
2023/06/26 03:40:17;;;;;;;10.65;5.25;;;;;;;23.51;51.92;101229.88;5064459;28;20041;-77
2023/06/26 03:42:43;;;;;;;10.52;4.97;;;;;;;23.42;52.40;101238.38;5069393;28;20032;-77
2023/06/26 03:45:08;;;;;;;8.90;4.82;;;;;;;23.51;52.53;101229.88;5069907;28;20489;-77
2023/06/26 03:47:33;;;;;;;7.85;4.65;;;;;;;23.50;52.38;101231.03;5066851;28;20104;-77
2023/06/26 03:49:59;;;;;;;10.48;4.53;;;;;;;23.45;52.79;101234.84;5062534;28;20045;-77
2023/06/26 03:52:24;;;;;;;11.38;5.38;;;;;;;23.44;53.03;101238.03;5084224;28;20024;-77
2023/06/26 03:54:49;;;;;;;8.20;4.97;;;;;;;23.28;53.44;101244.16;5069302;28;20029;-77
2023/06/26 03:57:14;;;;;;;10.90;5.20;;;;;;;23.32;53.32;101252.00;5083123;28;20028;-77
2023/06/26 03:59:40;;;;;;;14.02;5.63;;;;;;;23.20;54.20;101250.66;5069652;28;20024;-77
2023/06/26 04:02:05;;;;;;;9.80;4.85;;;;;;;23.28;53.82;101252.66;5068491;28;20028;-77
2023/06/26 04:04:30;;;;;;;9.43;4.90;;;;;;;23.23;53.85;101252.81;5067053;28;20028;-76
2023/06/26 04:06:57;;;;;;;13.50;5.05;;;;;;;23.28;54.04;101266.00;5068488;28;20036;-76
2023/06/26 04:09:22;;;;;;;11.68;5.80;;;;;;;23.17;54.26;101268.28;5060220;28;20036;-77
2023/06/26 04:11:47;;;;;;;9.93;5.25;;;;;;;23.25;54.54;101270.31;5055258;28;20032;-77
2023/06/26 04:14:13;;;;;;;10.70;5.22;;;;;;;23.22;54.70;101276.63;5067275;28;20172;-77
2023/06/26 04:16:38;;;;;;;9.63;5.43;;;;;;;23.27;54.60;101276.50;5068502;28;20420;-77
2023/06/26 04:19:04;;;;;;;10.35;5.18;;;;;;;23.22;55.06;101279.44;5068098;28;20123;-77
2023/06/26 04:21:30;;;;;;;14.95;5.55;;;;;;;23.26;54.86;101288.13;5061249;28;20025;-77
2023/06/26 04:23:55;;;;;;;12.40;5.60;;;;;;;23.28;54.87;101283.00;5069582;28;20037;-77
2023/06/26 04:26:21;;;;;;;9.77;5.20;;;;;;;23.26;55.21;101283.31;5069628;28;20036;-77
2023/06/26 04:28:46;;;;;;;10.98;5.07;;;;;;;23.28;55.32;101280.97;5068193;28;20052;-79
2023/06/26 04:31:11;;;;;;;11.50;5.80;;;;;;;23.22;55.40;101285.13;5051515;28;20076;-77
2023/06/26 04:33:37;;;;;;;11.80;5.30;;;;;;;23.24;55.66;101290.47;5050938;28;20063;-78
2023/06/26 04:36:06;;;;;;;12.77;6.07;;;;;;;23.21;56.17;101286.28;5051251;28;20059;-77
2023/06/26 04:38:34;;;;;;;13.88;6.22;;;;;;;23.22;55.78;101287.94;5075154;28;20073;-77
2023/06/26 04:41:01;;;;;;;16.48;5.70;;;;;;;23.23;56.18;101295.31;5088795;28;20032;-77
2023/06/26 04:43:26;;;;;;;15.25;5.40;;;;;;;23.27;56.05;101301.16;5090815;28;20020;-77
2023/06/26 04:45:52;;;;;;;13.02;5.85;;;;;;;23.21;56.44;101294.78;5069035;28;20437;-77
2023/06/26 04:48:17;;;;;;;17.27;5.68;;;;;;;23.24;56.62;101304.63;5063785;28;20559;-77
2023/06/26 04:50:42;;;;;;;13.25;5.28;;;;;;;23.25;56.42;101309.97;5069595;28;20029;-76
2023/06/26 04:53:08;;;;;;;13.90;5.85;;;;;;;23.27;56.22;101309.66;5069029;28;20483;-77
2023/06/26 04:55:33;;;;;;;13.35;5.38;;;;;;;23.28;56.60;101303.66;5070565;28;20031;-76
2023/06/26 04:57:58;;;;;;;16.77;5.90;;;;;;;23.33;56.45;101311.16;5068900;28;20491;-77
2023/06/26 05:00:24;;;;;;;17.92;5.90;;;;;;;23.20;56.84;101317.78;5068710;28;20058;-77
2023/06/26 05:02:58;;;;;;;13.20;5.47;;;;;;;23.24;56.65;101313.13;5062040;28;20025;-76
2023/06/26 05:05:24;;;;;;;12.90;5.30;;;;;;;23.26;56.29;101308.81;5068520;28;20120;-76
2023/06/26 05:07:49;;;;;;;17.40;5.47;;;;;;;23.20;56.84;101310.13;5069285;28;20050;-76
2023/06/26 05:10:15;;;;;;;13.82;5.45;;;;;;;23.22;56.41;101326.75;5069656;28;20025;-76
2023/06/26 05:12:40;;;;;;;14.63;5.38;;;;;;;23.27;56.33;101320.97;5069644;28;20031;-77
2023/06/26 05:15:06;;;;;;;12.40;5.05;;;;;;;23.14;56.90;101322.75;5064608;28;20444;-77
2023/06/26 05:17:31;;;;;;;12.18;5.35;;;;;;;23.16;56.48;101334.59;5068362;28;20383;-77
2023/06/26 05:19:57;;;;;;;16.38;5.80;;;;;;;23.11;56.91;101340.41;5067210;28;20033;-77
2023/06/26 05:22:23;;;;;;;15.73;5.07;;;;;;;23.18;56.27;101337.91;5069930;28;20040;-77
2023/06/26 05:24:49;;;;;;;15.23;5.00;;;;;;;23.20;56.41;101340.44;5070479;28;20085;-77
2023/06/26 05:27:21;;;;;;;17.20;6.25;;;;;;;23.23;56.36;101343.44;5073001;28;20028;-76
2023/06/26 05:29:47;;;;;;;14.73;5.32;;;;;;;23.25;55.83;101343.94;5085296;28;20033;-76
2023/06/26 05:32:17;;;;;;;12.25;5.00;;;;;;;23.43;55.73;101355.34;5059076;28;20139;-76
2023/06/26 05:34:45;;;;;;;15.18;5.50;;;;;;;23.25;55.78;101343.94;5053115;28;20116;-76
2023/06/26 05:37:18;;;;;;;15.63;4.75;;;;;;;23.26;55.66;101351.31;5071358;28;20060;-76
2023/06/26 05:39:44;;;;;;;13.30;4.68;;;;;;;23.23;55.60;101356.78;5093779;28;20089;-76
2023/06/26 05:42:10;;;;;;;13.77;4.60;;;;;;;23.37;55.51;101354.66;5092779;28;20039;-76
2023/06/26 05:44:35;;;;;;;14.68;4.65;;;;;;;23.34;55.44;101352.47;5086730;28;20051;-76
2023/06/26 05:47:01;;;;;;;12.07;5.07;;;;;;;23.39;54.74;101366.50;5071463;28;20440;-76
2023/06/26 05:49:26;;;;;;;12.65;4.75;;;;;;;23.40;54.94;101373.84;5061146;28;20041;-76
2023/06/26 05:51:51;;;;;;;17.67;4.82;;;;;;;23.45;54.26;101370.00;5053673;28;20016;-75
2023/06/26 05:54:17;;;;;;;12.82;4.53;;;;;;;23.49;54.07;101371.84;5052771;28;20043;-76
2023/06/26 05:56:43;;;;;;;13.07;4.82;;;;;;;23.53;54.30;101372.88;5053042;28;20021;-76
2023/06/26 05:59:10;;;;;;;12.85;4.15;;;;;;;23.52;54.28;101374.03;5065121;28;21440;-76
2023/06/26 06:01:36;;;;;;;14.52;4.55;;;;;;;23.58;54.30;101386.06;5066092;28;20066;-76
2023/06/26 06:04:01;;;;;;;11.52;3.70;;;;;;;23.71;53.66;101390.81;5067752;28;20064;-75
2023/06/26 06:06:27;;;;;;;12.95;4.60;;;;;;;23.66;53.58;101385.28;5063166;28;20032;-75
2023/06/26 06:08:52;;;;;;;10.60;4.20;;;;;;;23.70;53.30;101394.81;5066575;28;20392;-76
2023/06/26 06:11:17;;;;;;;17.52;4.45;;;;;;;23.79;52.80;101397.66;5073419;28;20111;-75
2023/06/26 06:13:43;;;;;;;11.02;4.13;;;;;;;23.81;53.00;101400.16;5072497;28;20020;-74
2023/06/26 06:16:08;;;;;;;11.30;3.72;;;;;;;23.76;52.44;101393.47;5082575;28;20399;-76
2023/06/26 06:18:33;;;;;;;14.63;3.90;;;;;;;23.87;52.50;101402.50;5074096;28;20028;-75
2023/06/26 06:20:59;;;;;;;11.98;4.05;;;;;;;23.87;51.95;101404.53;5072956;28;20567;-76
2023/06/26 06:23:24;;;;;;;8.05;3.47;;;;;;;23.91;52.12;101405.53;5068756;28;20043;-75
2023/06/26 06:25:50;;;;;;;9.80;3.70;;;;;;;23.95;51.30;101413.03;5066558;28;20093;-77
2023/06/26 06:28:16;;;;;;;9.75;3.28;;;;;;;24.07;51.73;101420.06;5072100;28;20093;-77
2023/06/26 06:30:42;;;;;;;10.80;3.17;;;;;;;24.06;51.32;101413.56;5072400;28;20103;-77
2023/06/26 06:33:07;;;;;;;11.15;3.60;;;;;;;24.14;52.80;101412.75;5072952;28;20037;-77
2023/06/26 06:35:32;;;;;;;12.52;3.70;;;;;;;24.17;52.27;101409.25;5072058;28;20035;-73
2023/06/26 06:37:57;;;;;;;10.43;3.60;;;;;;;24.24;51.40;101414.41;5070873;28;20036;-75
2023/06/26 06:40:24;;;;;;;10.75;3.40;;;;;;;24.23;50.26;101419.25;5071133;28;20052;-75
2023/06/26 06:42:50;;;;;;;9.45;3.30;;;;;;;24.28;50.70;101423.09;5064414;28;20056;-74
2023/06/26 06:45:15;;;;;;;9.32;3.00;;;;;;;24.35;51.00;101432.78;5051985;28;20840;-73
2023/06/26 06:47:40;;;;;;;11.27;2.97;;;;;;;24.36;50.88;101437.28;5066029;28;20040;-73
2023/06/26 06:50:08;;;;;;;10.15;3.40;;;;;;;24.32;50.33;101449.63;5065771;28;20488;-74
2023/06/26 06:52:38;;;;;;;7.68;3.45;;;;;;;24.39;50.60;101444.34;5064887;28;20028;-72
2023/06/26 06:55:08;;;;;;;8.90;3.03;;;;;;;24.22;49.96;101443.13;5071264;28;20109;-73
2023/06/26 06:57:38;;;;;;;8.32;2.92;;;;;;;24.24;50.64;101445.63;5070366;28;20030;-79
2023/06/26 07:00:08;;;;;;;8.85;3.30;;;;;;;24.31;51.56;101448.78;5071066;28;20498;-74
2023/06/26 07:02:33;;;;;;;9.90;3.08;;;;;;;24.36;50.37;101453.47;5064770;28;20059;-75
2023/06/26 07:04:59;;;;;;;5.50;2.80;;;;;;;24.42;50.27;101466.38;5068204;28;20032;-76
2023/06/26 07:07:28;;;;;;;12.88;3.42;;;;;;;24.40;50.65;101471.53;5059837;28;20036;-76
2023/06/26 07:09:54;;;;;;;9.68;2.92;;;;;;;24.27;50.71;101469.66;5057059;28;20070;-74
2023/06/26 07:12:19;;;;;;;7.90;3.00;;;;;;;24.35;50.96;101480.19;5067427;28;20081;-75
2023/06/26 07:14:44;;;;;;;5.88;2.90;;;;;;;24.32;50.53;101469.50;5068657;28;20490;-75
2023/06/26 07:17:09;;;;;;;7.80;3.03;;;;;;;24.34;50.52;101470.00;5067501;28;20028;-75
2023/06/26 07:19:35;;;;;;;8.48;2.70;;;;;;;24.30;50.83;101471.84;5070307;28;20379;-73
2023/06/26 07:22:00;;;;;;;7.50;3.00;;;;;;;24.33;50.97;101474.03;5069984;28;20029;-72
2023/06/26 07:24:25;;;;;;;8.52;2.85;;;;;;;24.29;51.47;101490.00;5085577;28;20055;-73
2023/06/26 07:26:51;;;;;;;6.78;2.78;;;;;;;24.17;50.23;101494.34;5068083;28;20037;-72
2023/06/26 07:29:16;;;;;;;7.40;2.63;;;;;;;24.25;51.45;101487.84;5071678;28;20029;-72
2023/06/26 07:31:41;;;;;;;9.85;3.17;;;;;;;24.29;50.65;101499.38;5069600;28;20040;-71
2023/06/26 07:34:07;;;;;;;8.85;2.83;;;;;;;24.39;51.22;101498.25;5070428;28;20553;-72
2023/06/26 07:36:32;;;;;;;9.45;2.70;;;;;;;24.41;50.93;101504.44;5070437;28;20541;-75
2023/06/26 07:38:57;;;;;;;7.93;2.90;;;;;;;24.24;50.39;101508.84;5069424;28;20554;-71
2023/06/26 07:41:23;;;;;;;9.60;2.47;;;;;;;24.39;50.22;101503.91;5070157;28;20029;-74
2023/06/26 07:43:48;;;;;;;8.32;3.17;;;;;;;24.43;50.46;101514.28;5066554;28;20534;-72
2023/06/26 07:46:13;;;;;;;6.53;2.55;;;;;;;24.53;50.23;101515.97;5071000;28;20025;-73
2023/06/26 07:48:38;;;;;;;5.03;2.55;;;;;;;24.55;49.68;101515.63;5069044;28;20056;-73
2023/06/26 07:51:04;;;;;;;5.07;2.60;;;;;;;24.64;50.14;101508.81;5070316;28;20586;-73
2023/06/26 07:53:29;;;;;;;6.43;2.30;;;;;;;24.57;49.05;101522.66;5069607;28;20103;-75
2023/06/26 07:55:54;;;;;;;9.02;2.60;;;;;;;24.49;49.31;101526.31;5067848;28;20056;-75
2023/06/26 07:58:20;;;;;;;7.38;2.53;;;;;;;24.42;49.73;101534.47;5069778;28;20506;-72
2023/06/26 08:00:45;;;;;;;8.93;2.25;;;;;;;24.41;49.44;101538.50;5061034;28;20027;-71
2023/06/26 08:03:10;;;;;;;9.27;2.60;;;;;;;24.47;49.16;101534.31;5049919;28;20519;-72
2023/06/26 08:05:36;;;;;;;12.45;2.35;;;;;;;24.41;48.45;101533.66;5049601;28;20013;-66
2023/06/26 08:08:02;;;;;;;5.43;1.88;;;;;;;24.44;48.73;101535.81;5048569;28;20439;-71
2023/06/26 08:10:28;;;;;;;5.30;1.90;;;;;;;24.51;48.44;101532.47;5046072;28;20025;-71
2023/06/26 08:12:54;;;;;;;5.30;1.80;;;;;;;24.44;46.08;101538.66;5050595;28;20024;-67
2023/06/26 08:15:19;;;;;;;5.55;1.88;;;;;;;24.36;45.41;101550.78;5068511;28;20094;-69
2023/06/26 08:17:45;;;;;;;11.13;2.40;;;;;;;24.56;48.29;101557.03;5066491;28;20038;-71
2023/06/26 08:20:11;;;;;;;5.45;1.88;;;;;;;24.58;45.18;101541.34;5081628;28;20074;-65
2023/06/26 08:22:36;;;;;;;7.15;1.70;;;;;;;24.65;45.29;101553.06;5074982;28;20052;-67
2023/06/26 08:25:03;;;;;;;5.63;1.98;;;;;;;24.80;47.10;101557.41;5068530;28;20016;-67
2023/06/26 08:27:28;;;;;;;3.63;2.03;;;;;;;24.94;46.37;101545.88;5068412;28;20032;-76
2023/06/26 08:29:54;;;;;;;8.20;1.83;;;;;;;24.91;44.27;101544.53;5089195;28;20071;-76
2023/06/26 08:32:19;;;;;;;5.93;1.70;;;;;;;25.01;43.71;101545.38;5074970;28;20115;-76
2023/06/26 08:34:44;;;;;;;3.97;1.60;;;;;;;25.09;43.87;101553.94;5065256;28;20032;-76
2023/06/26 08:37:10;;;;;;;5.00;1.80;;;;;;;25.13;43.25;101554.09;5067276;28;20642;-76
2023/06/26 08:39:35;;;;;;;5.82;1.80;;;;;;;25.27;44.56;101549.09;5055759;28;20028;-76
2023/06/26 08:42:00;;;;;;;3.92;1.33;;;;;;;25.22;42.11;101552.06;5068915;28;20036;-76
2023/06/26 08:44:26;;;;;;;5.45;2.05;;;;;;;25.29;43.70;101557.25;5068958;28;20086;-76
2023/06/26 08:46:52;;;;;;;6.60;1.58;;;;;;;25.38;43.28;101560.91;5069719;28;20032;-76
2023/06/26 08:49:17;;;;;;;6.30;2.28;;;;;;;25.38;43.35;101569.44;5070031;28;20024;-76
2023/06/26 08:51:50;;;;;;;4.55;1.63;;;;;;;25.32;43.39;101565.13;5067627;28;20035;-75
2023/06/26 08:54:21;;;;;;;6.07;1.60;;;;;;;25.39;43.77;101568.28;5069996;28;20033;-75
2023/06/26 08:56:49;;;;;;;4.25;1.20;;;;;;;25.41;42.86;101571.63;5054699;28;20056;-75
2023/06/26 08:59:15;;;;;;;6.05;1.95;;;;;;;25.40;42.52;101575.63;5048983;28;20425;-74
2023/06/26 09:01:41;;;;;;;3.78;1.52;;;;;;;25.37;43.23;101570.63;5063675;28;20079;-73
2023/06/26 09:04:07;;;;;;;3.92;1.50;;;;;;;25.28;42.95;101573.47;5072759;28;20041;-74
2023/06/26 09:06:33;;;;;;;5.40;1.85;;;;;;;25.32;43.85;101585.00;5068756;28;20028;-75
2023/06/26 09:08:58;;;;;;;10.27;1.70;;;;;;;25.32;42.95;101585.84;5070962;28;20033;-75
2023/06/26 09:11:23;;;;;;;5.90;1.40;;;;;;;25.40;42.47;101575.63;5069245;28;20031;-75
2023/06/26 09:13:49;;;;;;;7.80;1.55;;;;;;;25.40;42.16;101585.00;5064625;28;20024;-74
2023/06/26 09:16:14;;;;;;;5.95;1.25;;;;;;;25.47;42.56;101584.50;5055071;28;20052;-76
2023/06/26 09:18:45;;;;;;;7.38;1.70;;;;;;;25.55;42.30;101582.81;5063798;28;20035;-73
2023/06/26 09:21:11;;;;;;;4.90;1.35;;;;;;;25.55;41.10;101597.84;5070472;28;20468;-74
2023/06/26 09:23:39;;;;;;;5.15;1.35;;;;;;;25.61;41.23;101595.66;5077371;28;20026;-74
2023/06/26 09:26:06;;;;;;;5.47;1.50;;;;;;;25.58;41.40;101588.63;5079496;28;20029;-74
2023/06/26 09:28:35;;;;;;;3.97;1.30;;;;;;;25.62;41.50;101598.19;5073679;28;20037;-72
2023/06/26 09:31:04;;;;;;;3.05;1.38;;;;;;;25.64;41.79;101592.16;5060344;28;20130;-72
2023/06/26 09:33:37;;;;;;;5.28;1.20;;;;;;;25.62;40.34;101595.34;5053067;28;20074;-71
2023/06/26 09:36:06;;;;;;;5.03;1.25;;;;;;;25.68;40.30;101599.66;5079355;28;20071;-73
2023/06/26 09:38:31;;;;;;;3.63;1.00;;;;;;;25.74;40.00;101619.38;5066153;28;20032;-73
2023/06/26 09:40:56;;;;;;;6.35;1.30;;;;;;;25.63;38.92;101614.06;5070996;28;20046;-71
2023/06/26 09:43:22;;;;;;;1.83;1.10;;;;;;;25.63;39.78;101622.59;5066991;28;20032;-72
2023/06/26 09:45:48;;;;;;;3.50;1.23;;;;;;;25.69;40.20;101612.69;5072154;28;20127;-70
2023/06/26 09:48:14;;;;;;;3.58;1.20;;;;;;;25.72;39.95;101625.41;5066966;28;20111;-71
2023/06/26 09:50:41;;;;;;;6.68;1.40;;;;;;;25.80;40.44;101626.59;5070707;28;20037;-69
2023/06/26 09:53:13;;;;;;;2.45;1.10;;;;;;;25.64;38.46;101627.09;5071813;28;20030;-70
2023/06/26 09:55:39;;;;;;;3.88;1.05;;;;;;;25.76;39.39;101629.25;5082329;28;20036;-72
2023/06/26 09:58:05;;;;;;;5.45;1.30;;;;;;;25.84;39.54;101631.28;5083674;28;20502;-70
2023/06/26 10:00:31;;;;;;;3.58;1.20;;;;;;;25.78;37.37;101634.63;5051629;28;20033;-75
2023/06/26 10:02:57;;;;;;;5.47;1.50;;;;;;;25.86;38.98;101622.38;5069054;28;20551;-76
2023/06/26 10:05:23;;;;;;;4.05;1.42;;;;;;;25.86;38.58;101634.63;5061768;28;20012;-76
2023/06/26 10:07:49;;;;;;;3.00;1.27;;;;;;;25.80;39.48;101649.34;5082887;28;20061;-73
2023/06/26 10:10:16;;;;;;;4.88;1.17;;;;;;;25.75;38.94;101644.66;5067433;28;20028;-72
2023/06/26 10:12:48;;;;;;;4.18;0.98;;;;;;;25.80;37.78;101635.97;5077726;28;21591;-73
2023/06/26 10:15:16;;;;;;;5.40;1.33;;;;;;;25.88;37.82;101654.19;5069600;28;20422;-74
2023/06/26 10:17:43;;;;;;;4.00;1.10;;;;;;;25.85;36.74;101650.00;5072114;28;20052;-73
2023/06/26 10:20:09;;;;;;;2.08;1.00;;;;;;;25.89;37.02;101638.78;5073434;28;20546;-78
2023/06/26 10:22:41;;;;;;;4.00;1.20;;;;;;;25.77;36.31;101644.28;5067410;28;20032;-74
2023/06/26 10:25:08;;;;;;;5.80;1.10;;;;;;;25.63;36.22;101644.50;5079305;28;20081;-76
2023/06/26 10:27:41;;;;;;;2.95;1.13;;;;;;;25.42;35.17;101652.84;5070697;28;20037;-77
2023/06/26 10:30:11;;;;;;;2.92;1.02;;;;;;;25.48;36.12;101656.38;5074884;28;20021;-75
2023/06/26 10:32:37;;;;;;;2.63;0.90;;;;;;;25.44;39.52;101644.84;5071653;28;20024;-76
2023/06/26 10:35:03;;;;;;;4.88;1.33;;;;;;;25.47;37.80;101641.34;5075357;28;20027;-73
2023/06/26 10:37:42;;;;;;;3.42;1.08;;;;;;;25.50;37.10;101660.53;5070498;28;20033;-74
2023/06/26 10:40:08;;;;;;;3.30;1.10;;;;;;;25.60;35.12;101659.38;5078954;28;20044;-77
2023/06/26 10:42:35;;;;;;;3.05;1.00;;;;;;;25.73;36.16;101668.91;5064477;28;20023;-76
2023/06/26 10:45:30;;;;;;;3.35;0.98;;;;;;;25.86;36.28;101667.88;5070666;28;20028;-75
2023/06/26 10:47:57;;;;;;;4.03;1.10;;;;;;;25.87;34.47;101673.25;5054756;28;20036;-73
2023/06/26 10:50:28;;;;;;;2.05;1.00;;;;;;;25.88;33.81;101671.25;5052943;28;20040;-74
2023/06/26 10:53:14;;;;;;;3.00;1.10;;;;;;;25.99;35.09;101680.28;5069732;28;20040;-75
2023/06/26 10:56:03;;;;;;;3.60;1.00;;;;;;;26.08;35.31;101687.59;5071787;28;20488;-74
2023/06/26 10:58:44;;;;;;;3.45;1.10;;;;;;;26.09;36.15;101666.50;5060244;28;20087;-72
2023/06/26 11:01:15;;;;;;;4.23;1.13;;;;;;;26.11;33.95;101663.34;5066278;28;20115;-76
2023/06/26 11:03:42;;;;;;;6.03;0.95;;;;;;;26.15;34.54;101679.38;5067285;28;20036;-76
2023/06/26 11:06:17;;;;;;;2.15;0.90;;;;;;;26.19;35.18;101688.91;5066810;28;20161;-76
2023/06/26 11:08:52;;;;;;;3.00;1.45;;;;;;;26.20;34.79;101696.25;5081154;28;20059;-75
2023/06/26 11:11:18;;;;;;;3.72;1.27;;;;;;;26.17;32.72;101690.41;5090782;28;20028;-77
2023/06/26 11:13:45;;;;;;;5.57;1.35;;;;;;;26.12;33.46;101691.44;5083915;28;20032;-74
2023/06/26 11:16:13;;;;;;;8.80;3.67;;;;;;;26.14;34.79;101679.72;5067220;28;20051;-77
2023/06/26 11:18:38;;;;;;;11.68;4.70;;;;;;;26.18;33.86;101690.09;5065921;28;20085;-75
2023/06/26 11:21:14;;;;;;;5.63;2.88;;;;;;;26.21;34.92;101685.72;5075690;28;20028;-77